sensor_id;sensor_type;location;lat;lon;timestamp;temperature;humidity
12769;DHT22;6448;48.916;8.990;2023-01-04T00:00:17;10.50;55.00
12769;DHT22;6448;48.916;8.990;2023-01-04T00:01:20;10.60;55.00
12769;DHT22;6448;48.916;8.990;2023-01-04T00:02:22;10.60;55.00
12769;DHT22;6448;48.916;8.990;2023-01-04T00:03:22;10.60;55.00
12769;DHT22;6448;48.916;8.990;2023-01-04T00:04:26;10.50;55.00
12769;DHT22;6448;48.916;8.990;2023-01-04T00:05:26;10.60;55.00
12769;DHT22;6448;48.916;8.990;2023-01-04T00:06:28;10.60;55.00
12769;DHT22;6448;48.916;8.990;2023-01-04T00:07:29;10.50;55.00
12769;DHT22;6448;48.916;8.990;2023-01-04T00:08:31;10.60;55.10
12769;DHT22;6448;48.916;8.990;2023-01-04T00:09:32;10.60;55.10
12769;DHT22;6448;48.916;8.990;2023-01-04T00:10:34;10.60;55.10
12769;DHT22;6448;48.916;8.990;2023-01-04T00:11:35;10.60;55.10
12769;DHT22;6448;48.916;8.990;2023-01-04T00:12:37;10.60;55.20
12769;DHT22;6448;48.916;8.990;2023-01-04T00:13:37;10.60;55.20
12769;DHT22;6448;48.916;8.990;2023-01-04T00:14:39;10.60;55.20
12769;DHT22;6448;48.916;8.990;2023-01-04T00:15:41;10.60;55.30
12769;DHT22;6448;48.916;8.990;2023-01-04T00:16:42;10.60;55.30
12769;DHT22;6448;48.916;8.990;2023-01-04T00:17:43;10.60;55.30
12769;DHT22;6448;48.916;8.990;2023-01-04T00:18:44;10.60;55.30
12769;DHT22;6448;48.916;8.990;2023-01-04T00:19:48;10.60;55.40
12769;DHT22;6448;48.916;8.990;2023-01-04T00:20:49;10.60;55.40
12769;DHT22;6448;48.916;8.990;2023-01-04T00:21:50;10.60;55.40
12769;DHT22;6448;48.916;8.990;2023-01-04T00:22:52;10.60;55.50
12769;DHT22;6448;48.916;8.990;2023-01-04T00:23:55;10.60;55.50
12769;DHT22;6448;48.916;8.990;2023-01-04T00:24:57;10.60;55.50
12769;DHT22;6448;48.916;8.990;2023-01-04T00:25:58;10.60;55.50
12769;DHT22;6448;48.916;8.990;2023-01-04T00:27:00;10.60;55.50
12769;DHT22;6448;48.916;8.990;2023-01-04T00:28:02;10.60;55.50
12769;DHT22;6448;48.916;8.990;2023-01-04T00:29:05;10.70;55.50
12769;DHT22;6448;48.916;8.990;2023-01-04T00:30:08;10.60;55.60
12769;DHT22;6448;48.916;8.990;2023-01-04T00:31:10;10.60;55.60
12769;DHT22;6448;48.916;8.990;2023-01-04T00:32:14;10.60;55.70
12769;DHT22;6448;48.916;8.990;2023-01-04T00:33:15;10.60;55.70
12769;DHT22;6448;48.916;8.990;2023-01-04T00:34:17;10.60;55.70
12769;DHT22;6448;48.916;8.990;2023-01-04T00:35:19;10.60;55.80
12769;DHT22;6448;48.916;8.990;2023-01-04T00:36:21;10.60;55.80
12769;DHT22;6448;48.916;8.990;2023-01-04T00:37:22;10.60;55.80
12769;DHT22;6448;48.916;8.990;2023-01-04T00:38:23;10.60;55.80
12769;DHT22;6448;48.916;8.990;2023-01-04T00:39:24;10.60;55.80
12769;DHT22;6448;48.916;8.990;2023-01-04T00:40:26;10.60;55.80
12769;DHT22;6448;48.916;8.990;2023-01-04T00:41:27;10.60;55.60
12769;DHT22;6448;48.916;8.990;2023-01-04T00:42:29;10.60;55.50
12769;DHT22;6448;48.916;8.990;2023-01-04T00:43:29;10.60;55.30
12769;DHT22;6448;48.916;8.990;2023-01-04T00:44:32;10.60;55.20
12769;DHT22;6448;48.916;8.990;2023-01-04T00:45:33;10.60;55.10
12769;DHT22;6448;48.916;8.990;2023-01-04T00:46:36;10.60;55.10
12769;DHT22;6448;48.916;8.990;2023-01-04T00:47:37;10.60;55.10
12769;DHT22;6448;48.916;8.990;2023-01-04T00:48:38;10.50;55.20
12769;DHT22;6448;48.916;8.990;2023-01-04T00:49:39;10.60;55.30
12769;DHT22;6448;48.916;8.990;2023-01-04T00:50:43;10.60;55.30
12769;DHT22;6448;48.916;8.990;2023-01-04T00:51:44;10.60;55.40
12769;DHT22;6448;48.916;8.990;2023-01-04T00:52:48;10.50;55.30
12769;DHT22;6448;48.916;8.990;2023-01-04T00:53:49;10.60;55.40
12769;DHT22;6448;48.916;8.990;2023-01-04T00:54:51;10.50;55.40
12769;DHT22;6448;48.916;8.990;2023-01-04T00:55:57;10.50;55.40
12769;DHT22;6448;48.916;8.990;2023-01-04T00:56:59;10.50;55.50
12769;DHT22;6448;48.916;8.990;2023-01-04T00:58:00;10.50;55.50
12769;DHT22;6448;48.916;8.990;2023-01-04T00:59:03;10.50;55.60
12769;DHT22;6448;48.916;8.990;2023-01-04T01:00:05;10.50;55.60
12769;DHT22;6448;48.916;8.990;2023-01-04T01:01:08;10.50;55.70
12769;DHT22;6448;48.916;8.990;2023-01-04T01:02:08;10.50;55.80
12769;DHT22;6448;48.916;8.990;2023-01-04T01:03:10;10.50;55.90
12769;DHT22;6448;48.916;8.990;2023-01-04T01:04:12;10.50;56.00
12769;DHT22;6448;48.916;8.990;2023-01-04T01:05:14;10.50;56.00
12769;DHT22;6448;48.916;8.990;2023-01-04T01:06:16;10.50;56.00
12769;DHT22;6448;48.916;8.990;2023-01-04T01:07:18;10.50;56.00
12769;DHT22;6448;48.916;8.990;2023-01-04T01:08:19;10.50;56.00
12769;DHT22;6448;48.916;8.990;2023-01-04T01:09:26;10.50;56.00
12769;DHT22;6448;48.916;8.990;2023-01-04T01:10:27;10.50;56.00
12769;DHT22;6448;48.916;8.990;2023-01-04T01:11:29;10.50;56.00
12769;DHT22;6448;48.916;8.990;2023-01-04T01:12:30;10.50;56.00
12769;DHT22;6448;48.916;8.990;2023-01-04T01:13:33;10.50;55.90
12769;DHT22;6448;48.916;8.990;2023-01-04T01:14:34;10.50;55.90
12769;DHT22;6448;48.916;8.990;2023-01-04T01:15:35;10.50;56.00
12769;DHT22;6448;48.916;8.990;2023-01-04T01:16:37;10.60;56.00
12769;DHT22;6448;48.916;8.990;2023-01-04T01:17:38;10.50;56.00
12769;DHT22;6448;48.916;8.990;2023-01-04T01:18:41;10.50;56.00
12769;DHT22;6448;48.916;8.990;2023-01-04T01:19:43;10.50;56.00
12769;DHT22;6448;48.916;8.990;2023-01-04T01:20:45;10.60;56.00
12769;DHT22;6448;48.916;8.990;2023-01-04T01:21:47;10.50;56.00
12769;DHT22;6448;48.916;8.990;2023-01-04T01:22:49;10.60;56.00
12769;DHT22;6448;48.916;8.990;2023-01-04T01:23:50;10.60;56.00
12769;DHT22;6448;48.916;8.990;2023-01-04T01:24:52;10.60;56.00
12769;DHT22;6448;48.916;8.990;2023-01-04T01:25:52;10.60;56.00
12769;DHT22;6448;48.916;8.990;2023-01-04T01:26:54;10.50;55.90
12769;DHT22;6448;48.916;8.990;2023-01-04T01:27:55;10.60;55.90
12769;DHT22;6448;48.916;8.990;2023-01-04T01:28:57;10.60;55.90
12769;DHT22;6448;48.916;8.990;2023-01-04T01:29:58;10.60;55.80
12769;DHT22;6448;48.916;8.990;2023-01-04T01:31:05;10.60;55.80
12769;DHT22;6448;48.916;8.990;2023-01-04T01:32:06;10.70;55.80
12769;DHT22;6448;48.916;8.990;2023-01-04T01:33:07;10.60;55.70
12769;DHT22;6448;48.916;8.990;2023-01-04T01:34:08;10.60;55.70
12769;DHT22;6448;48.916;8.990;2023-01-04T01:35:10;10.70;55.70
12769;DHT22;6448;48.916;8.990;2023-01-04T01:36:12;10.60;55.70
12769;DHT22;6448;48.916;8.990;2023-01-04T01:37:16;10.60;55.70
12769;DHT22;6448;48.916;8.990;2023-01-04T01:38:18;10.60;55.70
12769;DHT22;6448;48.916;8.990;2023-01-04T01:39:19;10.60;56.30
12769;DHT22;6448;48.916;8.990;2023-01-04T01:40:20;10.60;55.70
12769;DHT22;6448;48.916;8.990;2023-01-04T01:41:23;10.60;55.70
12769;DHT22;6448;48.916;8.990;2023-01-04T01:42:25;10.60;55.80
12769;DHT22;6448;48.916;8.990;2023-01-04T01:43:45;10.60;55.80
12769;DHT22;6448;48.916;8.990;2023-01-04T01:44:59;10.60;55.80
12769;DHT22;6448;48.916;8.990;2023-01-04T01:46:01;10.60;55.80
12769;DHT22;6448;48.916;8.990;2023-01-04T01:47:01;10.60;55.70
12769;DHT22;6448;48.916;8.990;2023-01-04T01:48:06;10.60;55.70
12769;DHT22;6448;48.916;8.990;2023-01-04T01:49:16;10.60;55.60
12769;DHT22;6448;48.916;8.990;2023-01-04T01:50:22;10.60;55.60
12769;DHT22;6448;48.916;8.990;2023-01-04T01:51:26;10.60;55.60
12769;DHT22;6448;48.916;8.990;2023-01-04T01:52:33;10.60;55.60
12769;DHT22;6448;48.916;8.990;2023-01-04T01:53:37;10.60;55.60
12769;DHT22;6448;48.916;8.990;2023-01-04T01:54:44;10.60;55.50
12769;DHT22;6448;48.916;8.990;2023-01-04T01:55:47;10.60;55.50
12769;DHT22;6448;48.916;8.990;2023-01-04T01:56:50;10.60;55.50
12769;DHT22;6448;48.916;8.990;2023-01-04T01:57:52;10.60;55.50
12769;DHT22;6448;48.916;8.990;2023-01-04T01:58:55;10.60;55.50
12769;DHT22;6448;48.916;8.990;2023-01-04T02:00:00;10.60;55.50
12769;DHT22;6448;48.916;8.990;2023-01-04T02:01:13;10.60;55.50
12769;DHT22;6448;48.916;8.990;2023-01-04T02:02:14;10.60;55.50
12769;DHT22;6448;48.916;8.990;2023-01-04T02:03:18;10.60;55.50
12769;DHT22;6448;48.916;8.990;2023-01-04T02:04:20;10.60;55.60
12769;DHT22;6448;48.916;8.990;2023-01-04T02:05:23;10.60;55.50
12769;DHT22;6448;48.916;8.990;2023-01-04T02:06:28;10.60;55.50
12769;DHT22;6448;48.916;8.990;2023-01-04T02:07:31;10.60;55.50
12769;DHT22;6448;48.916;8.990;2023-01-04T02:08:32;10.60;55.50
12769;DHT22;6448;48.916;8.990;2023-01-04T02:09:34;10.60;55.50
12769;DHT22;6448;48.916;8.990;2023-01-04T02:10:37;10.60;55.50
12769;DHT22;6448;48.916;8.990;2023-01-04T02:11:37;10.60;55.50
12769;DHT22;6448;48.916;8.990;2023-01-04T02:12:39;10.60;55.50
12769;DHT22;6448;48.916;8.990;2023-01-04T02:13:41;10.60;55.50
12769;DHT22;6448;48.916;8.990;2023-01-04T02:14:58;10.60;55.50
12769;DHT22;6448;48.916;8.990;2023-01-04T02:16:07;10.60;55.50
12769;DHT22;6448;48.916;8.990;2023-01-04T02:17:14;10.60;55.50
12769;DHT22;6448;48.916;8.990;2023-01-04T02:18:21;10.60;55.50
12769;DHT22;6448;48.916;8.990;2023-01-04T02:19:36;10.60;55.40
12769;DHT22;6448;48.916;8.990;2023-01-04T02:20:47;10.60;55.30
12769;DHT22;6448;48.916;8.990;2023-01-04T02:22:02;10.60;55.10
12769;DHT22;6448;48.916;8.990;2023-01-04T02:25:16;10.60;54.90
12769;DHT22;6448;48.916;8.990;2023-01-04T02:26:44;10.50;54.80
12769;DHT22;6448;48.916;8.990;2023-01-04T02:27:54;10.50;54.80
12769;DHT22;6448;48.916;8.990;2023-01-04T02:32:27;10.40;54.90
12769;DHT22;6448;48.916;8.990;2023-01-04T02:33:43;10.40;55.00
12769;DHT22;6448;48.916;8.990;2023-01-04T02:34:52;10.40;55.10
12769;DHT22;6448;48.916;8.990;2023-01-04T02:36:01;10.40;55.10
12769;DHT22;6448;48.916;8.990;2023-01-04T02:37:10;10.40;55.20
12769;DHT22;6448;48.916;8.990;2023-01-04T02:38:18;10.40;55.20
12769;DHT22;6448;48.916;8.990;2023-01-04T02:39:31;10.40;55.20
12769;DHT22;6448;48.916;8.990;2023-01-04T02:40:55;10.40;55.20
12769;DHT22;6448;48.916;8.990;2023-01-04T02:42:06;10.30;55.20
12769;DHT22;6448;48.916;8.990;2023-01-04T02:43:15;10.30;55.20
12769;DHT22;6448;48.916;8.990;2023-01-04T02:44:41;10.40;55.20
12769;DHT22;6448;48.916;8.990;2023-01-04T02:45:58;10.30;55.20
12769;DHT22;6448;48.916;8.990;2023-01-04T02:47:05;10.30;55.20
12769;DHT22;6448;48.916;8.990;2023-01-04T02:48:08;10.30;55.30
12769;DHT22;6448;48.916;8.990;2023-01-04T02:49:27;10.30;55.30
12769;DHT22;6448;48.916;8.990;2023-01-04T02:50:51;10.30;55.40
12769;DHT22;6448;48.916;8.990;2023-01-04T02:51:52;10.30;55.50
12769;DHT22;6448;48.916;8.990;2023-01-04T02:52:54;10.30;55.50
12769;DHT22;6448;48.916;8.990;2023-01-04T02:53:57;10.30;55.50
12769;DHT22;6448;48.916;8.990;2023-01-04T02:55:00;10.30;55.50
12769;DHT22;6448;48.916;8.990;2023-01-04T02:56:12;10.30;55.50
12769;DHT22;6448;48.916;8.990;2023-01-04T02:57:30;10.30;55.50
12769;DHT22;6448;48.916;8.990;2023-01-04T02:58:43;10.30;55.60
12769;DHT22;6448;48.916;8.990;2023-01-04T03:00:10;10.30;55.60
12769;DHT22;6448;48.916;8.990;2023-01-04T03:01:22;10.20;55.50
12769;DHT22;6448;48.916;8.990;2023-01-04T03:03:04;10.20;55.50
12769;DHT22;6448;48.916;8.990;2023-01-04T03:04:40;10.20;55.60
12769;DHT22;6448;48.916;8.990;2023-01-04T03:06:08;10.20;55.70
12769;DHT22;6448;48.916;8.990;2023-01-04T03:07:23;10.20;55.70
12769;DHT22;6448;48.916;8.990;2023-01-04T03:08:30;10.20;55.70
12769;DHT22;6448;48.916;8.990;2023-01-04T03:09:36;10.20;55.70
12769;DHT22;6448;48.916;8.990;2023-01-04T03:10:41;10.20;55.70
12769;DHT22;6448;48.916;8.990;2023-01-04T03:11:48;10.20;55.70
12769;DHT22;6448;48.916;8.990;2023-01-04T03:13:14;10.20;55.70
12769;DHT22;6448;48.916;8.990;2023-01-04T03:14:19;10.20;55.70
12769;DHT22;6448;48.916;8.990;2023-01-04T03:15:24;10.20;55.70
12769;DHT22;6448;48.916;8.990;2023-01-04T03:16:28;10.10;55.70
12769;DHT22;6448;48.916;8.990;2023-01-04T03:17:35;10.20;55.70
12769;DHT22;6448;48.916;8.990;2023-01-04T03:18:39;10.20;55.70
12769;DHT22;6448;48.916;8.990;2023-01-04T03:19:44;10.20;55.70
12769;DHT22;6448;48.916;8.990;2023-01-04T03:20:55;10.20;55.70
12769;DHT22;6448;48.916;8.990;2023-01-04T03:21:59;10.20;55.70
12769;DHT22;6448;48.916;8.990;2023-01-04T03:23:03;10.10;55.70
12769;DHT22;6448;48.916;8.990;2023-01-04T03:24:23;10.10;55.70
12769;DHT22;6448;48.916;8.990;2023-01-04T03:25:46;10.20;55.70
12769;DHT22;6448;48.916;8.990;2023-01-04T03:27:07;10.10;55.80
12769;DHT22;6448;48.916;8.990;2023-01-04T03:28:29;10.10;55.80
12769;DHT22;6448;48.916;8.990;2023-01-04T03:29:53;10.10;55.80
12769;DHT22;6448;48.916;8.990;2023-01-04T03:31:18;10.10;55.90
12769;DHT22;6448;48.916;8.990;2023-01-04T03:32:45;10.10;55.90
12769;DHT22;6448;48.916;8.990;2023-01-04T03:34:05;10.10;55.90
12769;DHT22;6448;48.916;8.990;2023-01-04T03:35:31;10.10;56.50
12769;DHT22;6448;48.916;8.990;2023-01-04T03:36:55;10.10;56.00
12769;DHT22;6448;48.916;8.990;2023-01-04T03:38:03;10.10;56.00
12769;DHT22;6448;48.916;8.990;2023-01-04T03:39:30;10.10;56.10
12769;DHT22;6448;48.916;8.990;2023-01-04T03:40:56;10.00;56.10
12769;DHT22;6448;48.916;8.990;2023-01-04T03:42:21;10.10;56.20
12769;DHT22;6448;48.916;8.990;2023-01-04T03:43:45;10.10;56.30
12769;DHT22;6448;48.916;8.990;2023-01-04T03:45:13;10.10;56.30
12769;DHT22;6448;48.916;8.990;2023-01-04T03:46:36;10.10;56.40
12769;DHT22;6448;48.916;8.990;2023-01-04T03:48:02;10.10;56.40
12769;DHT22;6448;48.916;8.990;2023-01-04T03:49:28;10.10;56.50
12769;DHT22;6448;48.916;8.990;2023-01-04T03:50:35;10.10;56.60
12769;DHT22;6448;48.916;8.990;2023-01-04T03:51:38;10.10;56.60
12769;DHT22;6448;48.916;8.990;2023-01-04T03:52:41;10.10;56.60
12769;DHT22;6448;48.916;8.990;2023-01-04T03:53:49;10.10;56.70
12769;DHT22;6448;48.916;8.990;2023-01-04T03:54:53;10.10;56.60
12769;DHT22;6448;48.916;8.990;2023-01-04T03:55:57;10.10;56.70
12769;DHT22;6448;48.916;8.990;2023-01-04T03:57:00;10.10;56.60
12769;DHT22;6448;48.916;8.990;2023-01-04T03:58:01;10.10;56.60
12769;DHT22;6448;48.916;8.990;2023-01-04T03:59:03;10.10;56.60
12769;DHT22;6448;48.916;8.990;2023-01-04T04:00:09;10.10;56.70
12769;DHT22;6448;48.916;8.990;2023-01-04T04:01:12;10.10;56.70
12769;DHT22;6448;48.916;8.990;2023-01-04T04:02:13;10.10;56.70
12769;DHT22;6448;48.916;8.990;2023-01-04T04:03:18;10.20;56.80
12769;DHT22;6448;48.916;8.990;2023-01-04T04:04:19;10.20;56.70
12769;DHT22;6448;48.916;8.990;2023-01-04T04:05:41;10.20;56.70
12769;DHT22;6448;48.916;8.990;2023-01-04T04:07:01;10.20;56.70
12769;DHT22;6448;48.916;8.990;2023-01-04T04:08:21;10.20;56.70
12769;DHT22;6448;48.916;8.990;2023-01-04T04:09:27;10.20;56.70
12769;DHT22;6448;48.916;8.990;2023-01-04T04:10:28;10.20;56.70
12769;DHT22;6448;48.916;8.990;2023-01-04T04:11:29;10.20;56.70
12769;DHT22;6448;48.916;8.990;2023-01-04T04:12:30;10.20;56.70
12769;DHT22;6448;48.916;8.990;2023-01-04T04:13:32;10.20;56.70
12769;DHT22;6448;48.916;8.990;2023-01-04T04:14:33;10.10;56.70
12769;DHT22;6448;48.916;8.990;2023-01-04T04:15:34;10.20;56.70
12769;DHT22;6448;48.916;8.990;2023-01-04T04:16:36;10.20;56.60
12769;DHT22;6448;48.916;8.990;2023-01-04T04:17:38;10.20;56.50
12769;DHT22;6448;48.916;8.990;2023-01-04T04:18:38;10.10;56.30
12769;DHT22;6448;48.916;8.990;2023-01-04T04:19:40;10.20;56.40
12769;DHT22;6448;48.916;8.990;2023-01-04T04:20:42;10.10;56.30
12769;DHT22;6448;48.916;8.990;2023-01-04T04:21:44;10.20;56.40
12769;DHT22;6448;48.916;8.990;2023-01-04T04:22:45;10.20;56.40
12769;DHT22;6448;48.916;8.990;2023-01-04T04:23:46;10.20;56.60
12769;DHT22;6448;48.916;8.990;2023-01-04T04:24:47;10.10;56.60
12769;DHT22;6448;48.916;8.990;2023-01-04T04:25:49;10.10;56.70
12769;DHT22;6448;48.916;8.990;2023-01-04T04:26:50;10.10;56.70
12769;DHT22;6448;48.916;8.990;2023-01-04T04:27:53;10.10;56.70
12769;DHT22;6448;48.916;8.990;2023-01-04T04:28:54;10.10;56.70
12769;DHT22;6448;48.916;8.990;2023-01-04T04:29:56;10.10;56.70
12769;DHT22;6448;48.916;8.990;2023-01-04T04:30:57;10.10;56.70
12769;DHT22;6448;48.916;8.990;2023-01-04T04:31:59;10.10;56.60
12769;DHT22;6448;48.916;8.990;2023-01-04T04:32:59;10.20;56.60
12769;DHT22;6448;48.916;8.990;2023-01-04T04:34:01;10.20;56.60
12769;DHT22;6448;48.916;8.990;2023-01-04T04:35:02;10.10;56.50
12769;DHT22;6448;48.916;8.990;2023-01-04T04:36:07;10.10;56.50
12769;DHT22;6448;48.916;8.990;2023-01-04T04:37:08;10.10;56.60
12769;DHT22;6448;48.916;8.990;2023-01-04T04:38:10;10.10;56.60
12769;DHT22;6448;48.916;8.990;2023-01-04T04:39:11;10.20;56.70
12769;DHT22;6448;48.916;8.990;2023-01-04T04:40:13;10.20;56.70
12769;DHT22;6448;48.916;8.990;2023-01-04T04:41:28;10.10;56.70
12769;DHT22;6448;48.916;8.990;2023-01-04T04:42:38;10.10;56.80
12769;DHT22;6448;48.916;8.990;2023-01-04T04:43:40;10.10;56.90
12769;DHT22;6448;48.916;8.990;2023-01-04T04:44:40;10.20;57.00
12769;DHT22;6448;48.916;8.990;2023-01-04T04:45:42;10.10;57.00
12769;DHT22;6448;48.916;8.990;2023-01-04T04:46:44;10.20;57.10
12769;DHT22;6448;48.916;8.990;2023-01-04T04:47:46;10.10;57.10
12769;DHT22;6448;48.916;8.990;2023-01-04T04:48:47;10.10;57.10
12769;DHT22;6448;48.916;8.990;2023-01-04T04:49:48;10.20;57.30
12769;DHT22;6448;48.916;8.990;2023-01-04T04:50:49;10.20;57.30
12769;DHT22;6448;48.916;8.990;2023-01-04T04:51:52;10.20;57.30
12769;DHT22;6448;48.916;8.990;2023-01-04T04:52:54;10.20;57.40
12769;DHT22;6448;48.916;8.990;2023-01-04T04:53:55;10.20;57.40
12769;DHT22;6448;48.916;8.990;2023-01-04T04:54:56;10.20;57.50
12769;DHT22;6448;48.916;8.990;2023-01-04T04:55:57;10.20;57.50
12769;DHT22;6448;48.916;8.990;2023-01-04T04:56:59;10.40;57.70
12769;DHT22;6448;48.916;8.990;2023-01-04T04:58:00;10.20;57.60
12769;DHT22;6448;48.916;8.990;2023-01-04T04:59:02;10.20;57.60
12769;DHT22;6448;48.916;8.990;2023-01-04T05:00:03;10.20;57.70
12769;DHT22;6448;48.916;8.990;2023-01-04T05:01:06;10.20;57.70
12769;DHT22;6448;48.916;8.990;2023-01-04T05:02:07;10.20;57.80
12769;DHT22;6448;48.916;8.990;2023-01-04T05:03:08;10.20;57.80
12769;DHT22;6448;48.916;8.990;2023-01-04T05:04:09;10.30;57.90
12769;DHT22;6448;48.916;8.990;2023-01-04T05:05:15;10.30;57.90
12769;DHT22;6448;48.916;8.990;2023-01-04T05:06:16;10.40;58.00
12769;DHT22;6448;48.916;8.990;2023-01-04T05:07:19;10.30;58.00
12769;DHT22;6448;48.916;8.990;2023-01-04T05:08:20;10.30;58.00
12769;DHT22;6448;48.916;8.990;2023-01-04T05:09:21;10.30;58.00
12769;DHT22;6448;48.916;8.990;2023-01-04T05:10:22;10.30;57.80
12769;DHT22;6448;48.916;8.990;2023-01-04T05:11:24;10.30;57.90
12769;DHT22;6448;48.916;8.990;2023-01-04T05:12:40;10.30;57.90
12769;DHT22;6448;48.916;8.990;2023-01-04T05:13:59;10.30;57.90
12769;DHT22;6448;48.916;8.990;2023-01-04T05:14:59;10.40;58.00
12769;DHT22;6448;48.916;8.990;2023-01-04T05:16:03;10.30;57.90
12769;DHT22;6448;48.916;8.990;2023-01-04T05:17:04;10.40;58.00
12769;DHT22;6448;48.916;8.990;2023-01-04T05:18:07;10.40;58.00
12769;DHT22;6448;48.916;8.990;2023-01-04T05:19:08;10.40;58.00
12769;DHT22;6448;48.916;8.990;2023-01-04T05:20:10;10.40;58.00
12769;DHT22;6448;48.916;8.990;2023-01-04T05:21:11;10.40;58.00
12769;DHT22;6448;48.916;8.990;2023-01-04T05:22:12;10.40;58.10
12769;DHT22;6448;48.916;8.990;2023-01-04T05:23:17;10.50;58.10
12769;DHT22;6448;48.916;8.990;2023-01-04T05:24:19;10.50;58.10
12769;DHT22;6448;48.916;8.990;2023-01-04T05:25:20;10.50;58.10
12769;DHT22;6448;48.916;8.990;2023-01-04T05:26:22;10.50;58.00
12769;DHT22;6448;48.916;8.990;2023-01-04T05:27:22;10.50;58.00
12769;DHT22;6448;48.916;8.990;2023-01-04T05:28:24;10.50;58.00
12769;DHT22;6448;48.916;8.990;2023-01-04T05:29:25;10.50;58.00
12769;DHT22;6448;48.916;8.990;2023-01-04T05:30:44;10.60;58.00
12769;DHT22;6448;48.916;8.990;2023-01-04T05:31:52;10.60;58.00
12769;DHT22;6448;48.916;8.990;2023-01-04T05:32:53;10.60;58.00
12769;DHT22;6448;48.916;8.990;2023-01-04T05:33:54;10.60;58.00
12769;DHT22;6448;48.916;8.990;2023-01-04T05:34:56;10.60;58.00
12769;DHT22;6448;48.916;8.990;2023-01-04T05:35:58;10.60;58.00
12769;DHT22;6448;48.916;8.990;2023-01-04T05:37:00;10.60;58.00
12769;DHT22;6448;48.916;8.990;2023-01-04T05:38:00;10.70;57.90
12769;DHT22;6448;48.916;8.990;2023-01-04T05:39:04;10.70;57.80
12769;DHT22;6448;48.916;8.990;2023-01-04T05:40:05;10.70;57.80
12769;DHT22;6448;48.916;8.990;2023-01-04T05:41:06;10.70;57.80
12769;DHT22;6448;48.916;8.990;2023-01-04T05:42:27;10.70;57.80
12769;DHT22;6448;48.916;8.990;2023-01-04T05:43:29;10.70;57.70
12769;DHT22;6448;48.916;8.990;2023-01-04T05:44:30;10.70;57.70
12769;DHT22;6448;48.916;8.990;2023-01-04T05:45:32;10.70;57.70
12769;DHT22;6448;48.916;8.990;2023-01-04T05:46:33;10.70;57.70
12769;DHT22;6448;48.916;8.990;2023-01-04T05:47:35;10.70;57.70
12769;DHT22;6448;48.916;8.990;2023-01-04T05:48:36;10.70;57.60
12769;DHT22;6448;48.916;8.990;2023-01-04T05:49:37;10.70;57.60
12769;DHT22;6448;48.916;8.990;2023-01-04T05:50:38;10.70;57.60
12769;DHT22;6448;48.916;8.990;2023-01-04T05:51:44;10.70;57.60
12769;DHT22;6448;48.916;8.990;2023-01-04T05:52:44;10.70;57.60
12769;DHT22;6448;48.916;8.990;2023-01-04T05:53:46;10.70;57.60
12769;DHT22;6448;48.916;8.990;2023-01-04T05:54:48;10.70;57.60
12769;DHT22;6448;48.916;8.990;2023-01-04T05:55:50;10.70;57.70
12769;DHT22;6448;48.916;8.990;2023-01-04T05:56:51;10.70;57.70
12769;DHT22;6448;48.916;8.990;2023-01-04T05:57:53;10.70;57.70
12769;DHT22;6448;48.916;8.990;2023-01-04T05:58:54;10.70;57.70
12769;DHT22;6448;48.916;8.990;2023-01-04T05:59:55;10.80;57.80
12769;DHT22;6448;48.916;8.990;2023-01-04T06:00:57;10.80;57.80
12769;DHT22;6448;48.916;8.990;2023-01-04T06:01:58;10.80;57.80
12769;DHT22;6448;48.916;8.990;2023-01-04T06:02:59;10.80;57.80
12769;DHT22;6448;48.916;8.990;2023-01-04T06:04:01;10.80;57.80
12769;DHT22;6448;48.916;8.990;2023-01-04T06:05:02;10.80;57.80
12769;DHT22;6448;48.916;8.990;2023-01-04T06:06:05;10.80;57.80
12769;DHT22;6448;48.916;8.990;2023-01-04T06:07:05;10.80;57.80
12769;DHT22;6448;48.916;8.990;2023-01-04T06:08:07;10.80;57.70
12769;DHT22;6448;48.916;8.990;2023-01-04T06:09:09;10.80;57.70
12769;DHT22;6448;48.916;8.990;2023-01-04T06:10:12;10.90;57.80
12769;DHT22;6448;48.916;8.990;2023-01-04T06:11:14;10.90;58.30
12769;DHT22;6448;48.916;8.990;2023-01-04T06:12:15;10.90;57.70
12769;DHT22;6448;48.916;8.990;2023-01-04T06:13:16;10.90;57.60
12769;DHT22;6448;48.916;8.990;2023-01-04T06:14:17;10.90;57.70
12769;DHT22;6448;48.916;8.990;2023-01-04T06:15:19;10.90;57.60
12769;DHT22;6448;48.916;8.990;2023-01-04T06:16:21;10.90;57.60
12769;DHT22;6448;48.916;8.990;2023-01-04T06:17:21;11.00;57.70
12769;DHT22;6448;48.916;8.990;2023-01-04T06:18:23;11.00;57.70
12769;DHT22;6448;48.916;8.990;2023-01-04T06:19:24;11.00;57.60
12769;DHT22;6448;48.916;8.990;2023-01-04T06:20:26;11.00;57.60
12769;DHT22;6448;48.916;8.990;2023-01-04T06:21:26;11.00;57.60
12769;DHT22;6448;48.916;8.990;2023-01-04T06:22:28;11.00;57.50
12769;DHT22;6448;48.916;8.990;2023-01-04T06:23:29;11.00;57.50
12769;DHT22;6448;48.916;8.990;2023-01-04T06:24:31;11.10;57.60
12769;DHT22;6448;48.916;8.990;2023-01-04T06:25:34;11.10;57.50
12769;DHT22;6448;48.916;8.990;2023-01-04T06:26:36;11.10;57.50
12769;DHT22;6448;48.916;8.990;2023-01-04T06:27:37;11.10;57.50
12769;DHT22;6448;48.916;8.990;2023-01-04T06:28:39;11.10;57.50
12769;DHT22;6448;48.916;8.990;2023-01-04T06:29:40;11.10;57.40
12769;DHT22;6448;48.916;8.990;2023-01-04T06:30:41;11.10;57.50
12769;DHT22;6448;48.916;8.990;2023-01-04T06:31:42;11.10;57.50
12769;DHT22;6448;48.916;8.990;2023-01-04T06:32:44;11.20;57.50
12769;DHT22;6448;48.916;8.990;2023-01-04T06:33:45;11.10;57.40
12769;DHT22;6448;48.916;8.990;2023-01-04T06:34:46;11.20;57.40
12769;DHT22;6448;48.916;8.990;2023-01-04T06:35:53;11.20;57.40
12769;DHT22;6448;48.916;8.990;2023-01-04T06:36:54;11.20;57.40
12769;DHT22;6448;48.916;8.990;2023-01-04T06:37:55;11.20;57.40
12769;DHT22;6448;48.916;8.990;2023-01-04T06:38:56;11.20;57.40
12769;DHT22;6448;48.916;8.990;2023-01-04T06:39:58;11.30;57.40
12769;DHT22;6448;48.916;8.990;2023-01-04T06:41:00;11.30;57.40
12769;DHT22;6448;48.916;8.990;2023-01-04T06:42:02;11.30;57.40
12769;DHT22;6448;48.916;8.990;2023-01-04T06:43:04;11.30;57.40
12769;DHT22;6448;48.916;8.990;2023-01-04T06:44:05;11.30;57.40
12769;DHT22;6448;48.916;8.990;2023-01-04T06:45:07;11.30;57.40
12769;DHT22;6448;48.916;8.990;2023-01-04T06:46:08;11.30;57.40
12769;DHT22;6448;48.916;8.990;2023-01-04T06:47:10;11.30;57.40
12769;DHT22;6448;48.916;8.990;2023-01-04T06:48:13;11.30;57.30
12769;DHT22;6448;48.916;8.990;2023-01-04T06:49:15;11.30;57.30
12769;DHT22;6448;48.916;8.990;2023-01-04T06:50:16;11.30;57.30
12769;DHT22;6448;48.916;8.990;2023-01-04T06:51:17;11.40;57.30
12769;DHT22;6448;48.916;8.990;2023-01-04T06:52:18;11.40;57.30
12769;DHT22;6448;48.916;8.990;2023-01-04T06:53:20;11.40;57.20
12769;DHT22;6448;48.916;8.990;2023-01-04T06:54:22;11.40;57.20
12769;DHT22;6448;48.916;8.990;2023-01-04T06:55:22;11.40;57.20
12769;DHT22;6448;48.916;8.990;2023-01-04T06:56:26;11.40;57.80
12769;DHT22;6448;48.916;8.990;2023-01-04T06:57:26;11.40;57.20
12769;DHT22;6448;48.916;8.990;2023-01-04T06:58:28;11.50;57.20
12769;DHT22;6448;48.916;8.990;2023-01-04T06:59:29;11.40;57.10
12769;DHT22;6448;48.916;8.990;2023-01-04T07:00:30;11.40;57.10
12769;DHT22;6448;48.916;8.990;2023-01-04T07:01:32;11.40;57.10